createdAt,value
2018-04-02T00:01:41.735Z,1.80
2018-04-02T00:04:11.062Z,1.70
2018-04-02T00:06:39.492Z,1.70
2018-04-02T00:09:08.117Z,1.70
2018-04-02T00:11:36.508Z,1.70
2018-04-02T00:14:11.117Z,1.80
2018-04-02T00:16:39.513Z,1.80
2018-04-02T00:19:07.927Z,1.70
2018-04-02T00:21:36.314Z,1.80
2018-04-02T00:24:05.547Z,1.70
2018-04-02T00:26:34.130Z,1.70
2018-04-02T00:29:03.173Z,1.70
2018-04-02T00:31:30.967Z,1.60
2018-04-02T00:33:59.430Z,1.60
2018-04-02T00:36:34.023Z,1.60
2018-04-02T00:39:06.629Z,1.50
2018-04-02T00:41:35.020Z,1.50
2018-04-02T00:44:03.453Z,1.50
2018-04-02T00:46:31.887Z,1.50
2018-04-02T00:49:03.250Z,1.50
2018-04-02T00:51:31.641Z,1.60
2018-04-02T00:54:00.221Z,1.60
2018-04-02T00:56:28.627Z,1.50
2018-04-02T00:58:57.188Z,1.60
2018-04-02T01:01:31.073Z,1.50
2018-04-02T01:04:01.099Z,1.50
2018-04-02T01:06:30.732Z,1.60
2018-04-02T01:08:59.181Z,1.50
2018-04-02T01:11:27.688Z,1.60
2018-04-02T01:13:56.088Z,1.50
2018-04-02T01:16:24.465Z,1.40
2018-04-02T01:18:52.909Z,1.40
2018-04-02T01:21:21.469Z,1.40
2018-04-02T01:23:49.934Z,1.40
2018-04-02T01:26:22.176Z,1.40
2018-04-02T01:28:50.704Z,1.30
2018-04-02T01:31:19.276Z,1.30
2018-04-02T01:33:47.792Z,1.30
2018-04-02T01:36:16.216Z,1.30
2018-04-02T01:38:45.604Z,1.30
2018-04-02T01:41:14.964Z,1.30
2018-04-02T01:43:44.212Z,1.20
2018-04-02T01:46:12.693Z,1.20
2018-04-02T01:48:47.788Z,1.20
2018-04-02T01:51:21.746Z,1.10
2018-04-02T01:53:52.664Z,1.10
2018-04-02T01:56:21.096Z,1.10
2018-04-02T01:58:49.481Z,1.00
2018-04-02T02:01:17.868Z,1.00
2018-04-02T02:03:47.069Z,1.00
2018-04-02T02:06:16.309Z,0.90
2018-04-02T02:08:44.723Z,0.90
2018-04-02T02:11:13.133Z,0.90
2018-04-02T02:13:41.539Z,0.90
2018-04-02T02:16:12.105Z,0.90
2018-04-02T02:18:40.527Z,0.90
2018-04-02T02:21:09.660Z,0.80
2018-04-02T02:23:38.860Z,0.80
2018-04-02T02:26:07.283Z,0.80
2018-04-02T02:28:36.470Z,0.60
2018-04-02T02:31:04.867Z,0.60
2018-04-02T02:33:33.318Z,0.50
2018-04-02T02:36:01.770Z,0.50
2018-04-02T02:38:34.327Z,0.50
2018-04-02T02:41:02.717Z,0.50
2018-04-02T02:43:31.304Z,0.50
2018-04-02T02:45:59.706Z,0.40
2018-04-02T02:48:28.168Z,0.40
2018-04-02T02:50:56.689Z,0.40
2018-04-02T02:53:25.104Z,0.30
2018-04-02T02:55:53.492Z,0.30
2018-04-02T02:58:21.926Z,0.30
2018-04-02T03:00:53.249Z,0.20
2018-04-02T03:03:21.827Z,0.20
2018-04-02T03:05:50.219Z,0.20
2018-04-02T03:08:19.442Z,0.20
2018-04-02T03:10:48.010Z,0.20
2018-04-02T03:13:16.401Z,0.20
2018-04-02T03:15:44.861Z,0.20
2018-04-02T03:18:13.236Z,0.20
2018-04-02T03:20:41.619Z,0.20
2018-04-02T03:23:11.582Z,0.10
2018-04-02T03:25:48.541Z,0.10
2018-04-02T03:28:16.908Z,0.10
2018-04-02T03:30:45.482Z,0.10
2018-04-02T03:33:14.084Z,0.00
2018-04-02T03:35:42.655Z,-0.10
2018-04-02T03:38:12.004Z,-0.10
2018-04-02T03:40:40.585Z,-0.10
2018-04-02T03:43:09.359Z,0.00
2018-04-02T03:45:38.240Z,-0.10
2018-04-02T03:48:06.815Z,-0.10
2018-04-02T03:50:35.261Z,-0.10
2018-04-02T03:53:16.125Z,-0.10
2018-04-02T03:55:44.523Z,0.00
2018-04-02T03:58:12.955Z,-0.10
2018-04-02T04:00:41.400Z,-0.10
2018-04-02T04:03:09.775Z,0.00
2018-04-02T04:05:38.158Z,0.00
2018-04-02T04:08:06.755Z,-0.10
2018-04-02T04:10:35.158Z,-0.10
2018-04-02T04:13:05.877Z,-0.30
2018-04-02T04:15:34.252Z,0.00
2018-04-02T04:18:02.662Z,0.00
2018-04-02T04:20:33.029Z,0.00
2018-04-02T04:23:01.405Z,0.00
2018-04-02T04:25:29.796Z,0.00
2018-04-02T04:28:02.834Z,0.00
2018-04-02T04:30:32.053Z,-0.10
2018-04-02T04:33:00.460Z,-0.10
2018-04-02T04:35:28.865Z,-0.10
2018-04-02T04:37:58.207Z,-0.20
2018-04-02T04:40:26.658Z,-0.20
2018-04-02T04:42:55.759Z,-0.30
2018-04-02T04:45:24.992Z,-0.40
2018-04-02T04:47:53.400Z,-0.40
2018-04-02T04:50:25.236Z,-0.40
2018-04-02T04:52:53.676Z,-0.40
2018-04-02T04:55:22.098Z,-0.40
2018-04-02T04:57:50.494Z,-0.40
2018-04-02T05:00:18.932Z,-0.40
2018-04-02T05:02:47.492Z,-0.50
2018-04-02T05:05:16.108Z,-0.50
2018-04-02T05:07:44.495Z,-0.50
2018-04-02T05:10:13.672Z,-0.40
2018-04-02T05:12:44.490Z,-0.40
2018-04-02T05:15:13.674Z,-0.30
2018-04-02T05:17:42.872Z,-0.20
2018-04-02T05:20:11.292Z,-0.20
2018-04-02T05:22:40.475Z,0.00
2018-04-02T05:25:09.041Z,0.00
2018-04-02T05:27:37.444Z,0.10
2018-04-02T05:30:05.846Z,0.30
2018-04-02T05:32:34.250Z,0.40
2018-04-02T05:35:06.014Z,0.60
2018-04-02T05:37:34.453Z,1.00
2018-04-02T05:40:02.861Z,1.20
2018-04-02T05:42:32.197Z,1.70
2018-04-02T05:45:00.819Z,2.30
2018-04-02T05:47:29.199Z,2.90
2018-04-02T05:49:57.572Z,3.60
2018-04-02T05:52:25.970Z,4.40
2018-04-02T05:54:54.537Z,5.10
2018-04-02T05:57:28.485Z,5.90
2018-04-02T05:59:57.653Z,7.30
2018-04-02T06:02:26.064Z,7.20
2018-04-02T06:04:54.619Z,7.90
2018-04-02T06:07:23.063Z,8.20
2018-04-02T06:09:52.293Z,8.70
2018-04-02T06:12:20.700Z,8.70
2018-04-02T06:14:49.135Z,8.60
2018-04-02T06:17:17.546Z,8.40
2018-04-02T06:19:48.385Z,8.20
2018-04-02T06:22:16.750Z,7.90
2018-04-02T06:24:45.394Z,8.00
2018-04-02T06:27:15.001Z,8.40
2018-04-02T06:29:43.636Z,8.40
2018-04-02T06:32:12.029Z,8.90
2018-04-02T06:34:41.235Z,10.10
2018-04-02T06:37:09.754Z,10.10
2018-04-02T06:39:38.876Z,11.20
2018-04-02T06:42:12.748Z,11.10
2018-04-02T06:44:41.321Z,11.50
2018-04-02T06:47:09.892Z,12.10
2018-04-02T06:49:38.310Z,12.70
2018-04-02T06:52:06.710Z,13.30
2018-04-02T06:54:47.476Z,14.50
2018-04-02T06:57:15.917Z,14.50
2018-04-02T06:59:46.716Z,15.60
2018-04-02T07:02:17.277Z,16.10
2018-04-02T07:04:45.863Z,16.10
2018-04-02T07:07:15.023Z,16.90
2018-04-02T07:09:43.434Z,16.90
2018-04-02T07:12:12.631Z,17.50
2018-04-02T07:14:41.237Z,17.40
2018-04-02T07:17:09.647Z,17.80
2018-04-02T07:19:38.965Z,18.70
2018-04-02T07:22:08.304Z,18.60
2018-04-02T07:24:36.709Z,19.00
2018-04-02T07:27:05.287Z,19.20
2018-04-02T07:29:35.814Z,19.50
2018-04-02T07:32:04.213Z,19.40
2018-04-02T07:34:32.801Z,19.50
2018-04-02T07:37:01.224Z,19.60
2018-04-02T07:39:29.662Z,19.80
2018-04-02T07:41:58.262Z,19.80
2018-04-02T07:44:29.113Z,20.10
2018-04-02T07:47:01.658Z,20.20
2018-04-02T07:49:30.269Z,20.20
2018-04-02T07:51:58.809Z,20.30
2018-04-02T07:54:27.186Z,20.70
2018-04-02T07:56:55.585Z,20.90
2018-04-02T07:59:24.037Z,21.10
2018-04-02T08:01:52.443Z,21.30
2018-04-02T08:04:20.906Z,21.60
2018-04-02T08:06:50.237Z,21.80
2018-04-02T08:09:22.966Z,22.10
2018-04-02T08:11:51.376Z,22.10
2018-04-02T08:14:20.543Z,22.50
2018-04-02T08:16:49.725Z,22.50
2018-04-02T08:19:18.331Z,22.50
2018-04-02T08:21:46.758Z,22.60
2018-04-02T08:24:15.161Z,22.70
2018-04-02T08:26:44.345Z,22.40
2018-04-02T08:29:13.167Z,22.40
2018-04-02T08:31:43.096Z,22.50
2018-04-02T08:34:11.651Z,22.20
2018-04-02T08:36:44.652Z,22.00
2018-04-02T08:39:13.254Z,21.80
2018-04-02T08:41:41.630Z,21.20
2018-04-02T08:44:10.266Z,21.00
2018-04-02T08:46:39.417Z,20.60
2018-04-02T08:49:08.001Z,20.60
2018-04-02T08:51:36.420Z,20.60
2018-04-02T08:54:10.400Z,20.20
2018-04-02T08:56:39.924Z,19.90
2018-04-02T08:59:08.313Z,19.90
2018-04-02T09:01:36.726Z,20.00
2018-04-02T09:04:05.244Z,20.10
2018-04-02T09:06:33.756Z,20.30
2018-04-02T09:09:02.137Z,20.50
2018-04-02T09:11:35.371Z,20.80
2018-04-02T09:14:03.831Z,20.60
2018-04-02T09:16:37.711Z,20.60
2018-04-02T09:19:06.971Z,20.40
2018-04-02T09:21:35.355Z,20.40
2018-04-02T09:24:03.735Z,20.70
2018-04-02T09:26:32.122Z,20.80
2018-04-02T09:29:00.629Z,20.90
2018-04-02T09:31:29.049Z,20.90
2018-04-02T09:33:57.475Z,21.20
2018-04-02T09:36:25.874Z,21.30
2018-04-02T09:38:55.718Z,21.60
2018-04-02T09:41:25.034Z,21.90
2018-04-02T09:43:53.447Z,22.50
2018-04-02T09:46:21.892Z,22.70
2018-04-02T09:48:53.613Z,22.80
2018-04-02T09:51:21.997Z,22.70
2018-04-02T09:53:51.101Z,22.30
2018-04-02T09:56:19.568Z,22.20
2018-04-02T09:58:47.984Z,21.70
2018-04-02T10:01:20.887Z,21.10
2018-04-02T10:03:54.973Z,19.40
2018-04-02T10:06:24.178Z,18.70
2018-04-02T10:08:52.589Z,18.60
2018-04-02T10:11:21.003Z,18.10
2018-04-02T10:13:49.421Z,17.60
2018-04-02T10:16:21.367Z,17.30
2018-04-02T10:18:49.833Z,17.10
2018-04-02T10:21:18.212Z,17.10
2018-04-02T10:23:46.650Z,17.00
2018-04-02T10:26:15.079Z,17.00
2018-04-02T10:28:43.697Z,17.10
2018-04-02T10:31:12.152Z,16.60
2018-04-02T10:33:40.545Z,16.30
2018-04-02T10:36:08.941Z,16.10
2018-04-02T10:38:37.393Z,15.60
2018-04-02T10:43:35.017Z,13.90
2018-04-02T10:46:03.438Z,13.70
2018-04-02T10:48:32.058Z,13.70
2018-04-02T10:51:00.447Z,13.80
2018-04-02T10:53:29.610Z,13.90
2018-04-02T10:55:58.022Z,13.80
2018-04-02T10:58:26.480Z,13.60
2018-04-02T11:00:55.681Z,13.60
2018-04-02T11:03:24.086Z,13.60
2018-04-02T11:05:53.274Z,14.60
2018-04-02T11:08:26.845Z,15.20
2018-04-02T11:10:55.280Z,15.20
2018-04-02T11:13:23.689Z,15.60
2018-04-02T11:15:52.099Z,15.00
2018-04-02T11:18:20.693Z,14.50
2018-04-02T11:20:49.179Z,14.00
2018-04-02T11:23:18.489Z,13.40
2018-04-02T11:25:47.097Z,13.40
2018-04-02T11:28:15.549Z,13.40
2018-04-02T11:30:46.554Z,13.40
2018-04-02T11:33:15.920Z,12.60
2018-04-02T11:35:45.096Z,12.50
2018-04-02T11:38:13.517Z,12.50
2018-04-02T11:40:41.897Z,12.50
2018-04-02T11:43:10.460Z,12.70
2018-04-02T11:45:39.046Z,12.70
2018-04-02T11:48:07.694Z,12.70
2018-04-02T11:50:36.243Z,13.00
2018-04-02T11:53:06.092Z,13.20
2018-04-02T11:55:35.156Z,13.30
2018-04-02T11:58:03.544Z,13.30
2018-04-02T12:00:31.953Z,13.30
2018-04-02T12:03:00.427Z,13.50
2018-04-02T12:05:29.589Z,14.00
2018-04-02T12:07:57.972Z,14.00
2018-04-02T12:10:26.369Z,14.10
2018-04-02T12:12:54.785Z,14.20
2018-04-02T12:15:28.580Z,14.40
2018-04-02T12:17:58.064Z,14.60
2018-04-02T12:20:27.550Z,14.80
2018-04-02T12:22:56.701Z,15.00
2018-04-02T12:25:25.111Z,15.10
2018-04-02T12:27:53.576Z,15.20
2018-04-02T12:30:21.947Z,15.50
2018-04-02T12:32:50.389Z,14.90
2018-04-02T12:35:18.785Z,14.40
2018-04-02T12:37:52.596Z,14.10
2018-04-02T12:40:20.996Z,13.60
2018-04-02T12:42:49.594Z,13.20
2018-04-02T12:45:18.200Z,13.00
2018-04-02T12:47:46.600Z,12.80
2018-04-02T12:50:15.771Z,12.70
2018-04-02T12:52:44.381Z,12.70
2018-04-02T12:55:12.809Z,12.70
2018-04-02T12:57:48.617Z,12.90
2018-04-02T13:00:22.569Z,12.70
2018-04-02T13:02:51.000Z,12.90
2018-04-02T13:05:19.591Z,13.00
2018-04-02T13:07:48.744Z,13.10
2018-04-02T13:10:17.901Z,13.30
2018-04-02T13:12:46.310Z,13.30
2018-04-02T13:15:18.291Z,13.40
2018-04-02T13:17:46.882Z,13.50
2018-04-02T13:20:16.115Z,13.50
2018-04-02T13:22:46.904Z,13.40
2018-04-02T13:25:15.293Z,13.10
2018-04-02T13:27:43.676Z,12.70
2018-04-02T13:30:12.074Z,12.40
2018-04-02T13:32:40.713Z,12.20
2018-04-02T13:35:09.260Z,11.80
2018-04-02T13:37:37.685Z,11.50
2018-04-02T13:40:06.280Z,11.20
2018-04-02T13:42:34.657Z,11.10
2018-04-02T13:45:08.497Z,11.10
2018-04-02T13:47:42.504Z,11.00
2018-04-02T13:50:11.072Z,11.00
2018-04-02T13:52:39.469Z,10.90
2018-04-02T13:55:07.988Z,10.90
2018-04-02T13:57:36.450Z,11.00
2018-04-02T14:00:04.850Z,11.00
2018-04-02T14:02:33.301Z,10.90
2018-04-02T14:05:01.705Z,10.70
2018-04-02T14:07:31.034Z,10.60
2018-04-02T14:10:04.857Z,10.60
2018-04-02T14:12:34.733Z,10.30
2018-04-02T14:15:03.439Z,10.20
2018-04-02T14:17:31.833Z,10.10
2018-04-02T14:20:00.331Z,10.00
2018-04-02T14:22:28.789Z,10.10
2018-04-02T14:24:57.292Z,10.00
2018-04-02T14:27:25.756Z,9.70
2018-04-02T14:29:54.244Z,9.50
2018-04-02T14:32:22.701Z,9.60
2018-04-02T14:34:56.564Z,9.70
2018-04-02T14:37:24.928Z,9.70
2018-04-02T14:39:53.364Z,9.60
2018-04-02T14:42:26.333Z,9.60
2018-04-02T14:44:54.710Z,9.50
2018-04-02T14:47:24.021Z,9.50
2018-04-02T14:49:53.285Z,9.50
2018-04-02T14:52:21.728Z,9.50
2018-04-02T14:54:50.368Z,9.50
2018-04-02T14:57:24.103Z,9.50
2018-04-02T14:59:52.693Z,9.50
2018-04-02T15:02:21.108Z,9.70
2018-04-02T15:04:50.309Z,9.90
2018-04-02T15:07:18.683Z,9.90
2018-04-02T15:09:47.269Z,9.80
2018-04-02T15:12:15.676Z,9.50
2018-04-02T15:14:44.322Z,9.20
2018-04-02T15:17:18.013Z,9.30
2018-04-02T15:19:47.401Z,9.30
2018-04-02T15:22:15.804Z,9.30
2018-04-02T15:24:44.196Z,9.20
2018-04-02T15:27:13.281Z,9.10
2018-04-02T15:29:42.616Z,9.20
2018-04-02T15:32:11.136Z,9.20
2018-04-02T15:34:40.284Z,9.40
2018-04-02T15:37:08.685Z,9.30
2018-04-02T15:39:37.457Z,9.40
2018-04-02T15:42:11.170Z,9.50
2018-04-02T15:44:39.625Z,9.50
2018-04-02T15:47:08.760Z,9.70
2018-04-02T15:49:37.246Z,9.60
2018-04-02T15:52:05.632Z,9.50
2018-04-02T15:54:34.006Z,9.30
2018-04-02T15:57:02.444Z,9.10
2018-04-02T15:59:30.821Z,8.90
2018-04-02T16:02:05.919Z,8.80
2018-04-02T16:04:40.126Z,8.70
2018-04-02T16:07:09.288Z,8.70
2018-04-02T16:09:37.851Z,8.70
2018-04-02T16:12:06.241Z,8.60
2018-04-02T16:14:34.697Z,8.60
2018-04-02T16:17:03.127Z,8.60
2018-04-02T16:19:31.501Z,8.60
2018-04-02T16:22:00.097Z,8.60
2018-04-02T16:24:28.500Z,8.50
2018-04-02T16:26:57.646Z,8.50
2018-04-02T16:29:31.613Z,8.40
2018-04-02T16:32:06.291Z,8.60
2018-04-02T16:34:34.705Z,8.60
2018-04-02T16:37:03.127Z,8.60
2018-04-02T16:39:31.501Z,8.60
2018-04-02T16:41:59.929Z,8.50
2018-04-02T16:44:28.289Z,8.40
2018-04-02T16:46:56.698Z,8.40
2018-04-02T16:49:25.096Z,8.40
2018-04-02T16:51:54.247Z,8.10
2018-04-02T16:54:22.691Z,8.00
2018-04-02T16:56:51.060Z,8.00
2018-04-02T16:59:20.241Z,7.60
2018-04-02T17:01:48.785Z,7.70
2018-04-02T17:04:18.618Z,7.60
2018-04-02T17:06:46.994Z,7.40
2018-04-02T17:09:16.139Z,7.20
2018-04-02T17:11:45.103Z,7.20
2018-04-02T17:14:14.484Z,6.90
2018-04-02T17:16:48.197Z,6.90
2018-04-02T17:19:17.380Z,6.80
2018-04-02T17:21:46.549Z,6.70
2018-04-02T17:24:18.915Z,6.70
2018-04-02T17:26:47.343Z,6.70
2018-04-02T17:29:16.501Z,6.60
2018-04-02T17:31:44.920Z,6.60
2018-04-02T17:34:13.302Z,6.70
2018-04-02T17:36:41.815Z,6.80
2018-04-02T17:39:11.162Z,6.80
2018-04-02T17:41:39.619Z,6.90
2018-04-02T17:44:08.042Z,6.90
2018-04-02T17:46:36.417Z,6.80
2018-04-02T17:49:04.850Z,6.70
2018-04-02T17:51:34.002Z,6.70
2018-04-02T17:54:02.383Z,6.60
2018-04-02T17:56:38.144Z,6.60
2018-04-02T17:59:06.755Z,6.50
2018-04-02T18:01:35.139Z,6.50
2018-04-02T18:04:03.541Z,6.40
2018-04-02T18:06:33.148Z,6.20
2018-04-02T18:09:01.604Z,6.20
2018-04-02T18:11:30.035Z,6.10
2018-04-02T18:13:58.468Z,6.00
2018-04-02T18:16:26.929Z,5.90
2018-04-02T18:18:56.261Z,5.70
2018-04-02T18:21:29.200Z,5.70
2018-04-02T18:23:57.573Z,5.60
2018-04-02T18:26:25.942Z,5.50
2018-04-02T18:28:55.169Z,5.30
2018-04-02T18:31:23.536Z,5.30
2018-04-02T18:33:52.043Z,5.30
2018-04-02T18:36:20.614Z,5.20
2018-04-02T18:38:49.113Z,5.20
2018-04-02T18:41:17.521Z,5.00
2018-04-02T18:43:47.418Z,4.90
2018-04-02T18:46:16.169Z,4.70
2018-04-02T18:48:45.295Z,4.60
2018-04-02T18:51:14.459Z,4.30
2018-04-02T18:53:46.710Z,4.30
2018-04-02T18:56:15.950Z,4.10
2018-04-02T18:58:44.343Z,4.10
2018-04-02T19:01:12.917Z,4.00
2018-04-02T19:03:41.291Z,3.90
2018-04-02T19:06:11.230Z,3.70
2018-04-02T19:08:39.855Z,3.50
2018-04-02T19:11:08.249Z,3.40
2018-04-02T19:13:36.658Z,3.20
2018-04-02T19:16:05.926Z,3.10
2018-04-02T19:18:34.306Z,3.00
2018-04-02T19:21:02.720Z,3.00
2018-04-02T19:23:31.279Z,2.90
2018-04-02T19:25:59.656Z,2.80
2018-04-02T19:28:33.478Z,2.80
2018-04-02T19:31:07.361Z,2.80
2018-04-02T19:33:35.822Z,2.80
2018-04-02T19:36:05.177Z,2.80
2018-04-02T19:38:33.555Z,2.80
2018-04-02T19:41:01.963Z,2.80
2018-04-02T19:43:30.392Z,2.70
2018-04-02T19:45:58.832Z,2.70
2018-04-02T19:48:27.454Z,2.60
2018-04-02T19:50:56.907Z,2.60
2018-04-02T19:53:30.768Z,2.60
2018-04-02T19:55:59.982Z,2.50
2018-04-02T19:58:28.396Z,2.50
2018-04-02T20:00:56.992Z,2.50
2018-04-02T20:03:25.405Z,2.50
2018-04-02T20:05:53.836Z,2.50
2018-04-02T20:08:22.254Z,2.60
2018-04-02T20:10:51.417Z,2.60
2018-04-02T20:13:19.834Z,2.60
2018-04-02T20:15:48.393Z,2.60
2018-04-02T20:18:16.994Z,2.60
2018-04-02T20:20:46.313Z,2.70
2018-04-02T20:23:14.693Z,2.70
2018-04-02T20:25:43.278Z,2.70
2018-04-02T20:28:11.647Z,2.80
2018-04-02T20:30:40.261Z,2.70
2018-04-02T20:33:08.672Z,2.70
2018-04-02T20:35:37.113Z,2.70
2018-04-02T20:38:11.172Z,2.60
2018-04-02T20:40:39.727Z,2.50
2018-04-02T20:43:08.400Z,2.50
2018-04-02T20:45:37.016Z,2.40
2018-04-02T20:48:05.399Z,2.30
2018-04-02T20:50:33.797Z,2.20
2018-04-02T20:53:02.216Z,2.20
2018-04-02T20:55:30.594Z,2.10
2018-04-02T20:57:59.012Z,2.00
2018-04-02T21:00:28.998Z,2.00
2018-04-02T21:02:57.366Z,1.90
2018-04-02T21:05:25.798Z,1.90
2018-04-02T21:07:54.212Z,1.80
2018-04-02T21:10:22.773Z,1.80
2018-04-02T21:12:51.195Z,1.80
2018-04-02T21:15:20.755Z,1.70
2018-04-02T21:17:49.952Z,1.70
2018-04-02T21:20:18.519Z,1.70
2018-04-02T21:22:52.221Z,1.60
2018-04-02T21:25:20.617Z,1.60
2018-04-02T21:27:49.788Z,1.50
2018-04-02T21:30:19.150Z,1.50
2018-04-02T21:32:47.533Z,1.40
2018-04-02T21:35:16.143Z,1.50
2018-04-02T21:37:44.578Z,1.40
2018-04-02T21:40:12.985Z,1.30
2018-04-02T21:42:41.390Z,1.30
2018-04-02T21:45:15.181Z,1.30
2018-04-02T21:47:43.603Z,1.20
2018-04-02T21:50:12.285Z,1.20
2018-04-02T21:52:40.670Z,1.10
2018-04-02T21:55:10.003Z,1.00
2018-04-02T21:57:38.490Z,1.00
2018-04-02T22:00:07.801Z,1.00
2018-04-02T22:02:38.391Z,1.00
2018-04-02T22:05:06.926Z,1.00
2018-04-02T22:07:36.622Z,0.90
2018-04-02T22:10:05.957Z,0.90
2018-04-02T22:12:34.525Z,0.90
2018-04-02T22:15:03.100Z,0.80
2018-04-02T22:17:31.480Z,0.80
2018-04-02T22:19:59.858Z,0.80
2018-04-02T22:22:29.021Z,0.70
2018-04-02T22:25:01.842Z,0.60
2018-04-02T22:27:31.020Z,0.60
2018-04-02T22:30:01.663Z,0.60
2018-04-02T22:32:30.842Z,0.50
2018-04-02T22:35:00.102Z,0.50
2018-04-02T22:37:34.422Z,0.50
2018-04-02T22:40:03.187Z,0.50
2018-04-02T22:42:32.725Z,0.40
2018-04-02T22:45:01.135Z,0.40
2018-04-02T22:47:29.737Z,0.40
2018-04-02T22:49:58.258Z,0.40
2018-04-02T22:52:30.898Z,0.30
2018-04-02T22:54:59.311Z,0.30
2018-04-02T22:57:27.702Z,0.30
2018-04-02T22:59:59.812Z,0.20
2018-04-02T23:02:28.233Z,0.20
2018-04-02T23:04:56.628Z,0.20
2018-04-02T23:07:25.035Z,0.10
2018-04-02T23:09:53.589Z,0.00
2018-04-02T23:12:22.124Z,0.00
2018-04-02T23:14:55.814Z,-0.10
2018-04-02T23:17:24.193Z,-0.10
2018-04-02T23:19:53.524Z,-0.20
2018-04-02T23:22:33.906Z,-0.20
2018-04-02T23:25:03.114Z,-0.30
2018-04-02T23:27:31.537Z,-0.30
2018-04-02T23:30:00.104Z,-0.30
2018-04-02T23:32:28.495Z,-0.40
2018-04-02T23:34:57.961Z,-0.50
2018-04-02T23:37:26.374Z,-0.50
2018-04-02T23:39:54.921Z,-0.50
2018-04-02T23:42:23.328Z,-0.60
2018-04-02T23:44:51.724Z,-0.60
2018-04-02T23:47:20.893Z,-0.60
2018-04-02T23:49:50.119Z,-0.60
2018-04-02T23:52:18.492Z,-0.70
2018-04-02T23:54:47.727Z,-0.70
2018-04-02T23:57:18.008Z,-0.70
2018-04-02T23:59:46.423Z,-0.80
